createdAt,value
2023-01-07T00:01:25.414Z,72.50
2023-01-07T00:03:54.607Z,77.60
2023-01-07T00:06:26.634Z,63.20
2023-01-07T00:08:55.888Z,46.50
2023-01-07T00:11:25.453Z,52.20
2023-01-07T00:13:54.235Z,35.00
2023-01-07T00:16:23.610Z,31.90
2023-01-07T00:18:52.436Z,21.70
2023-01-07T00:21:21.041Z,27.10
2023-01-07T00:23:49.046Z,42.00
2023-01-07T00:26:19.212Z,20.70
2023-01-07T00:28:49.435Z,29.40
2023-01-07T00:31:19.294Z,27.70
2023-01-07T00:34:07.389Z,30.80
2023-01-07T00:36:45.020Z,26.10
2023-01-07T00:39:18.051Z,23.60
2023-01-07T00:42:06.664Z,24.60
2023-01-07T00:44:34.891Z,23.10
2023-01-07T00:47:02.797Z,18.80
2023-01-07T00:49:31.156Z,28.90
2023-01-07T00:51:59.102Z,23.70
2023-01-07T00:54:27.143Z,26.70
2023-01-07T00:56:55.283Z,24.90
2023-01-07T00:59:23.217Z,25.10
2023-01-07T01:01:52.403Z,22.80
2023-01-07T01:04:20.530Z,24.30
2023-01-07T01:06:48.623Z,22.30
2023-01-07T01:09:16.787Z,20.30
2023-01-07T01:11:44.906Z,20.80
2023-01-07T01:14:12.910Z,17.60
2023-01-07T01:16:40.993Z,25.10
2023-01-07T01:19:09.050Z,32.20
2023-01-07T01:21:37.139Z,28.10
2023-01-07T01:24:05.176Z,23.00
2023-01-07T01:26:33.195Z,18.30
2023-01-07T01:29:01.190Z,18.00
2023-01-07T01:31:30.416Z,18.60
2023-01-07T01:34:00.055Z,21.50
2023-01-07T01:36:28.206Z,22.50
2023-01-07T01:38:58.133Z,22.70
2023-01-07T01:41:27.746Z,28.60
2023-01-07T01:43:56.824Z,24.40
2023-01-07T01:46:27.943Z,28.40
2023-01-07T01:49:07.851Z,23.90
2023-01-07T01:51:38.625Z,24.40
2023-01-07T01:54:09.104Z,24.30
2023-01-07T01:56:39.243Z,28.40
2023-01-07T01:59:10.398Z,28.60
2023-01-07T02:01:38.895Z,35.20
2023-01-07T02:04:13.116Z,31.20
2023-01-07T02:06:54.331Z,29.50
2023-01-07T02:09:22.843Z,25.90
2023-01-07T02:12:03.308Z,32.80
2023-01-07T02:14:31.296Z,31.30
2023-01-07T02:16:59.343Z,32.40
2023-01-07T02:19:47.423Z,24.30
2023-01-07T02:22:21.828Z,26.00
2023-01-07T02:24:49.808Z,27.20
2023-01-07T02:27:27.668Z,25.60
2023-01-07T02:30:14.606Z,24.40
2023-01-07T02:32:45.870Z,23.20
2023-01-07T02:35:23.244Z,16.30
2023-01-07T02:38:11.645Z,21.90
2023-01-07T02:40:43.821Z,19.70
2023-01-07T02:43:14.992Z,20.30
2023-01-07T02:46:10.699Z,15.20
2023-01-07T02:48:39.593Z,18.30
2023-01-07T02:51:07.723Z,21.70
2023-01-07T02:53:35.941Z,20.80
2023-01-07T02:56:13.399Z,25.70
2023-01-07T02:59:00.389Z,20.00
2023-01-07T03:01:41.476Z,29.10
2023-01-07T03:04:15.886Z,24.40
2023-01-07T03:06:55.294Z,19.70
2023-01-07T03:09:40.915Z,19.50
2023-01-07T03:12:12.251Z,26.40
2023-01-07T03:15:04.221Z,23.30
2023-01-07T03:17:35.002Z,27.00
2023-01-07T03:20:04.860Z,25.40
2023-01-07T03:22:33.926Z,22.90
2023-01-07T03:25:02.454Z,23.10
2023-01-07T03:27:32.448Z,23.40
2023-01-07T03:30:02.599Z,22.40
2023-01-07T03:32:34.849Z,25.40
2023-01-07T03:35:03.195Z,23.40
2023-01-07T03:37:32.742Z,23.70
2023-01-07T03:40:03.507Z,26.70
2023-01-07T03:42:40.988Z,25.90
2023-01-07T03:45:21.193Z,26.80
2023-01-07T03:47:51.625Z,20.60
2023-01-07T03:50:19.989Z,25.20
2023-01-07T03:52:48.743Z,25.90
2023-01-07T03:55:17.626Z,30.90
2023-01-07T03:57:46.041Z,26.60
2023-01-07T04:00:14.675Z,23.30
2023-01-07T04:02:45.459Z,16.10
2023-01-07T04:05:21.739Z,20.50
2023-01-07T04:07:49.965Z,24.60
2023-01-07T04:10:19.122Z,22.40
2023-01-07T04:12:47.273Z,21.60
2023-01-07T04:15:15.336Z,24.80
2023-01-07T04:17:43.374Z,28.60
2023-01-07T04:20:12.486Z,33.20
2023-01-07T04:22:40.627Z,26.60
2023-01-07T04:25:09.308Z,22.20
2023-01-07T04:27:37.525Z,27.30
2023-01-07T04:30:06.353Z,23.50
2023-01-07T04:32:35.426Z,26.90
2023-01-07T04:35:03.693Z,26.90
2023-01-07T04:37:32.118Z,19.90
2023-01-07T04:40:00.378Z,12.30
2023-01-07T04:42:31.569Z,19.40
2023-01-07T04:44:59.794Z,29.00
2023-01-07T04:47:28.796Z,18.00
2023-01-07T04:49:57.606Z,21.00
2023-01-07T04:52:25.645Z,17.60
2023-01-07T04:54:54.537Z,27.10
2023-01-07T04:57:22.812Z,22.70
2023-01-07T04:59:51.576Z,17.00
2023-01-07T05:02:19.816Z,19.20
2023-01-07T05:04:48.622Z,17.00
2023-01-07T05:07:17.970Z,17.60
2023-01-07T05:09:46.349Z,14.80
2023-01-07T05:12:14.443Z,18.50
2023-01-07T05:14:43.597Z,28.50
2023-01-07T05:17:11.665Z,23.90
2023-01-07T05:19:40.446Z,24.40
2023-01-07T05:22:10.803Z,29.20
2023-01-07T05:24:40.563Z,18.50
2023-01-07T05:27:08.701Z,19.40
2023-01-07T05:29:38.106Z,17.60
2023-01-07T05:32:06.284Z,19.40
2023-01-07T05:34:35.161Z,17.60
2023-01-07T05:37:03.815Z,14.50
2023-01-07T05:39:32.131Z,13.30
2023-01-07T05:42:01.006Z,19.20
2023-01-07T05:44:29.929Z,21.10
2023-01-07T05:46:57.970Z,17.50
2023-01-07T05:49:26.021Z,17.40
2023-01-07T05:51:54.037Z,17.20
2023-01-07T05:54:22.082Z,21.70
2023-01-07T05:56:50.088Z,13.50
2023-01-07T05:59:18.255Z,16.80
2023-01-07T06:01:46.419Z,14.20
2023-01-07T06:04:14.668Z,17.50
2023-01-07T06:06:42.644Z,21.00
2023-01-07T06:09:11.380Z,15.70
2023-01-07T06:11:39.394Z,16.60
2023-01-07T06:14:07.417Z,17.60
2023-01-07T06:16:35.665Z,21.60
2023-01-07T06:19:03.708Z,15.20
2023-01-07T06:21:31.665Z,13.50
2023-01-07T06:23:59.729Z,15.40
2023-01-07T06:26:27.732Z,17.30
2023-01-07T06:28:55.737Z,19.40
2023-01-07T06:31:23.832Z,25.70
2023-01-07T06:33:52.094Z,17.00
2023-01-07T06:36:20.229Z,16.40
2023-01-07T06:38:48.282Z,16.80
2023-01-07T06:41:16.423Z,15.10
2023-01-07T06:43:44.460Z,17.10
2023-01-07T06:46:12.804Z,20.10
2023-01-07T06:48:41.043Z,14.10
2023-01-07T06:51:09.162Z,20.40
2023-01-07T06:53:37.819Z,18.30
2023-01-07T06:56:06.009Z,21.80
2023-01-07T06:58:34.032Z,20.50
2023-01-07T07:01:06.164Z,20.80
2023-01-07T07:03:34.272Z,19.40
2023-01-07T07:06:02.427Z,26.70
2023-01-07T07:08:30.673Z,16.30
2023-01-07T07:10:58.777Z,19.90
2023-01-07T07:13:26.822Z,22.00
2023-01-07T07:15:55.030Z,17.50
2023-01-07T07:18:23.171Z,15.70
2023-01-07T07:20:51.214Z,28.70
2023-01-07T07:23:19.443Z,24.40
2023-01-07T07:25:47.572Z,18.90
2023-01-07T07:28:15.676Z,21.60
2023-01-07T07:30:45.608Z,22.40
2023-01-07T07:33:19.643Z,18.70
2023-01-07T07:35:48.726Z,18.90
2023-01-07T07:38:18.200Z,18.60
2023-01-07T07:40:46.673Z,17.30
2023-01-07T07:43:15.223Z,18.20
2023-01-07T07:45:43.395Z,25.70
2023-01-07T07:48:13.632Z,22.20
2023-01-07T07:50:41.778Z,31.90
2023-01-07T07:53:10.686Z,42.60
2023-01-07T07:55:39.403Z,25.60
2023-01-07T07:58:07.487Z,58.50
2023-01-07T08:00:35.656Z,53.40
2023-01-07T08:03:04.104Z,100.60
2023-01-07T08:05:32.601Z,48.40
2023-01-07T08:08:00.625Z,24.70
2023-01-07T08:10:29.328Z,29.90
2023-01-07T08:12:57.443Z,22.90
2023-01-07T08:15:25.495Z,22.20
2023-01-07T08:17:57.903Z,23.70
2023-01-07T08:20:26.053Z,18.20
2023-01-07T08:22:54.350Z,41.10
2023-01-07T08:25:22.430Z,38.00
2023-01-07T08:27:50.446Z,23.20
2023-01-07T08:30:18.772Z,23.20
2023-01-07T08:32:46.749Z,25.30
2023-01-07T08:35:16.253Z,19.60
2023-01-07T08:37:44.701Z,30.60
2023-01-07T08:40:13.034Z,33.60
2023-01-07T08:42:41.329Z,32.60
2023-01-07T08:45:10.083Z,42.60
2023-01-07T08:47:38.580Z,33.10
2023-01-07T08:50:06.907Z,22.10
2023-01-07T08:52:35.050Z,16.90
2023-01-07T08:55:03.108Z,21.10
2023-01-07T08:57:31.369Z,28.10
2023-01-07T08:59:59.414Z,27.50
2023-01-07T09:02:27.540Z,19.60
2023-01-07T09:04:55.775Z,23.80
2023-01-07T09:07:23.844Z,23.90
2023-01-07T09:09:51.871Z,20.30
2023-01-07T09:12:19.931Z,19.10
2023-01-07T09:14:47.997Z,17.30
2023-01-07T09:17:16.104Z,26.60
2023-01-07T09:19:44.159Z,16.10
2023-01-07T09:22:12.183Z,17.70
2023-01-07T09:24:40.278Z,14.40
2023-01-07T09:27:08.344Z,17.70
2023-01-07T09:29:36.388Z,15.50
2023-01-07T09:32:04.814Z,16.50
2023-01-07T09:34:32.943Z,23.90
2023-01-07T09:37:00.934Z,21.90
2023-01-07T09:39:29.022Z,24.80
2023-01-07T09:42:03.369Z,18.20
2023-01-07T09:44:50.306Z,20.10
2023-01-07T09:47:19.341Z,17.20
2023-01-07T09:49:48.243Z,18.00
2023-01-07T09:52:19.758Z,17.00
2023-01-07T09:54:51.374Z,15.50
2023-01-07T09:57:19.588Z,18.80
2023-01-07T09:59:47.635Z,19.20
2023-01-07T10:02:51.804Z,18.90
2023-01-07T10:05:27.261Z,15.40
2023-01-07T10:08:31.591Z,17.80
2023-01-07T10:11:02.571Z,19.10
2023-01-07T10:13:48.142Z,13.90
2023-01-07T10:16:35.112Z,30.50
2023-01-07T10:19:08.597Z,37.50
2023-01-07T10:21:36.870Z,49.60
2023-01-07T10:24:09.571Z,41.30
2023-01-07T10:26:45.334Z,41.10
2023-01-07T10:29:19.308Z,22.20
2023-01-07T10:31:48.847Z,28.50
2023-01-07T10:34:19.693Z,23.60
2023-01-07T10:36:57.819Z,23.30
2023-01-07T10:39:37.383Z,27.10
2023-01-07T10:42:05.468Z,20.60
2023-01-07T10:44:55.236Z,23.90
2023-01-07T10:47:29.432Z,21.50
2023-01-07T10:50:09.829Z,22.40
2023-01-07T10:52:43.982Z,21.00
2023-01-07T10:55:12.072Z,16.60
2023-01-07T10:57:40.748Z,16.30
2023-01-07T11:00:12.701Z,16.80
2023-01-07T11:02:43.599Z,18.90
2023-01-07T11:05:14.097Z,17.80
2023-01-07T11:07:45.087Z,16.50
2023-01-07T11:10:15.459Z,20.10
2023-01-07T11:12:48.833Z,21.20
2023-01-07T11:15:35.753Z,13.70
2023-01-07T11:18:23.902Z,26.10
2023-01-07T11:20:53.301Z,17.30
2023-01-07T11:23:38.094Z,22.40
2023-01-07T11:26:23.841Z,22.90
2023-01-07T11:29:10.713Z,23.40
2023-01-07T11:31:44.847Z,23.40
2023-01-07T11:36:42.025Z,19.40
2023-01-07T11:39:19.295Z,13.00
2023-01-07T11:42:26.026Z,17.70
2023-01-07T11:45:09.766Z,32.70
2023-01-07T11:47:38.490Z,16.10
2023-01-07T11:50:06.931Z,20.10
2023-01-07T11:52:35.542Z,17.90
2023-01-07T11:55:03.787Z,19.30
2023-01-07T11:57:32.057Z,18.00
2023-01-07T12:00:13.965Z,22.40
2023-01-07T12:02:42.651Z,19.00
2023-01-07T12:05:24.474Z,25.30
2023-01-07T12:07:52.717Z,23.20
2023-01-07T12:10:29.611Z,20.20
2023-01-07T12:12:59.003Z,20.20
2023-01-07T12:15:39.545Z,21.60
2023-01-07T12:18:07.740Z,18.60
2023-01-07T12:20:54.999Z,23.70
2023-01-07T12:23:22.977Z,23.70
2023-01-07T12:26:07.082Z,30.30
2023-01-07T12:28:35.455Z,20.00
2023-01-07T12:31:14.331Z,20.40
2023-01-07T12:33:54.769Z,15.10
2023-01-07T12:36:33.355Z,24.50
2023-01-07T12:39:04.066Z,13.40
2023-01-07T12:41:34.008Z,15.80
2023-01-07T12:44:07.704Z,16.60
2023-01-07T12:46:39.189Z,21.90
2023-01-07T12:49:08.088Z,19.20
2023-01-07T12:51:49.959Z,20.30
2023-01-07T12:54:21.195Z,20.80
2023-01-07T12:56:55.417Z,27.00
2023-01-07T13:02:27.973Z,29.60
2023-01-07T13:05:12.978Z,22.80
2023-01-07T13:07:55.999Z,25.10
2023-01-07T13:10:27.351Z,26.30
2023-01-07T13:12:57.389Z,18.40
2023-01-07T13:15:30.253Z,69.40
2023-01-07T13:17:59.891Z,32.90
2023-01-07T13:20:51.148Z,26.40
2023-01-07T13:23:22.660Z,26.50
2023-01-07T13:25:57.050Z,22.10
2023-01-07T13:28:28.127Z,26.20
2023-01-07T13:31:05.124Z,32.90
2023-01-07T13:33:39.366Z,38.70
2023-01-07T13:36:12.022Z,37.90
2023-01-07T13:38:46.319Z,37.90
2023-01-07T13:41:29.961Z,46.40
2023-01-07T13:44:04.407Z,43.20
2023-01-07T13:46:35.278Z,31.50
2023-01-07T13:49:03.897Z,31.10
2023-01-07T13:51:36.984Z,29.20
2023-01-07T13:54:05.184Z,32.00
2023-01-07T13:56:35.358Z,31.90
2023-01-07T13:59:04.036Z,21.00
2023-01-07T14:01:35.695Z,20.30
2023-01-07T14:04:04.076Z,16.60
2023-01-07T14:06:39.942Z,22.10
2023-01-07T14:09:08.023Z,31.20
2023-01-07T14:11:36.607Z,26.70
2023-01-07T14:14:10.891Z,21.40
2023-01-07T14:16:57.710Z,17.10
2023-01-07T14:19:25.764Z,19.50
2023-01-07T14:22:06.210Z,15.50
2023-01-07T14:25:06.946Z,17.70
2023-01-07T14:27:38.205Z,20.50
2023-01-07T14:30:20.772Z,21.80
2023-01-07T14:32:58.365Z,17.10
2023-01-07T14:35:32.413Z,19.70
2023-01-07T14:40:34.516Z,19.90
2023-01-07T14:43:03.741Z,20.80
2023-01-07T14:45:55.222Z,18.90
2023-01-07T14:48:31.194Z,19.60
2023-01-07T14:51:18.488Z,18.50
2023-01-07T14:54:05.496Z,27.50
2023-01-07T14:56:39.642Z,26.60
2023-01-07T15:01:44.515Z,20.20
2023-01-07T15:04:21.590Z,23.20
2023-01-07T15:06:50.776Z,20.60
2023-01-07T15:09:41.495Z,19.00
2023-01-07T15:12:36.401Z,22.00
2023-01-07T15:15:41.828Z,33.20
2023-01-07T15:18:10.809Z,33.50
2023-01-07T15:20:48.566Z,39.30
2023-01-07T15:23:21.628Z,43.50
2023-01-07T15:26:13.070Z,53.70
2023-01-07T15:28:44.239Z,46.80
2023-01-07T15:31:41.975Z,36.00
2023-01-07T15:34:14.450Z,22.50
2023-01-07T15:36:44.456Z,26.50
2023-01-07T15:39:21.531Z,25.40
2023-01-07T15:41:56.287Z,25.80
2023-01-07T15:44:33.694Z,17.90
2023-01-07T15:47:01.713Z,24.60
2023-01-07T15:49:29.882Z,22.80
2023-01-07T15:51:59.591Z,26.10
2023-01-07T15:54:38.441Z,30.30
2023-01-07T15:57:13.356Z,34.50
2023-01-07T15:59:46.901Z,41.90
2023-01-07T16:02:26.235Z,53.40
2023-01-07T16:04:56.064Z,49.90
2023-01-07T16:07:27.731Z,40.60
2023-01-07T16:09:56.832Z,29.50
2023-01-07T16:12:38.135Z,21.50
2023-01-07T16:15:26.137Z,20.30
2023-01-07T16:17:55.759Z,22.90
2023-01-07T16:20:27.566Z,31.50
2023-01-07T16:23:16.709Z,28.40
2023-01-07T16:25:53.727Z,35.10
2023-01-07T16:28:45.945Z,36.50
2023-01-07T16:31:16.574Z,38.80
2023-01-07T16:33:45.304Z,53.90
2023-01-07T16:36:17.440Z,63.00
2023-01-07T16:38:46.176Z,63.00
2023-01-07T16:41:19.354Z,52.70
2023-01-07T16:43:47.552Z,51.20
2023-01-07T16:46:23.940Z,48.30
2023-01-07T16:49:12.456Z,39.20
2023-01-07T16:51:43.619Z,41.20
2023-01-07T16:54:19.595Z,28.90
2023-01-07T16:56:52.985Z,29.90
2023-01-07T16:59:22.569Z,25.10
2023-01-07T17:01:50.796Z,29.20
2023-01-07T17:04:22.174Z,41.20
2023-01-07T17:06:50.295Z,38.40
2023-01-07T17:09:27.749Z,48.90
2023-01-07T17:11:56.062Z,52.60
2023-01-07T17:14:33.263Z,53.00
2023-01-07T17:17:02.209Z,49.40
2023-01-07T17:19:46.232Z,32.50
2023-01-07T17:22:31.818Z,25.90
2023-01-07T17:25:04.976Z,36.20
2023-01-07T17:27:34.017Z,37.70
2023-01-07T17:30:03.395Z,37.40
2023-01-07T17:32:42.379Z,36.40
2023-01-07T17:35:20.152Z,37.30
2023-01-07T17:37:48.770Z,38.00
2023-01-07T17:40:17.338Z,20.50
2023-01-07T17:43:04.732Z,34.30
2023-01-07T17:45:32.866Z,33.90
2023-01-07T17:48:01.705Z,22.00
2023-01-07T17:50:35.857Z,28.60
2023-01-07T17:53:04.420Z,25.70
2023-01-07T17:55:34.886Z,28.30
2023-01-07T17:58:03.153Z,20.80
2023-01-07T18:00:31.732Z,23.70
2023-01-07T18:03:00.197Z,24.80
2023-01-07T18:05:28.482Z,35.90
2023-01-07T18:07:56.659Z,43.00
2023-01-07T18:10:49.621Z,38.20
2023-01-07T18:13:17.693Z,35.90
2023-01-07T18:15:46.737Z,27.50
2023-01-07T18:18:16.030Z,34.90
2023-01-07T18:20:44.146Z,32.30
2023-01-07T18:23:12.249Z,30.90
2023-01-07T18:25:42.675Z,39.90
2023-01-07T18:28:11.114Z,34.20
2023-01-07T18:30:39.486Z,31.10
2023-01-07T18:33:08.290Z,40.20
2023-01-07T18:35:36.698Z,36.20
2023-01-07T18:38:04.702Z,33.30
2023-01-07T18:40:33.180Z,51.00
2023-01-07T18:43:01.124Z,45.00
2023-01-07T18:45:29.222Z,34.40
2023-01-07T18:47:57.252Z,39.70
2023-01-07T18:50:25.379Z,38.70
2023-01-07T18:52:53.437Z,54.70
2023-01-07T18:55:21.548Z,57.50
2023-01-07T18:57:49.545Z,45.50
2023-01-07T19:00:17.737Z,28.80
2023-01-07T19:02:45.949Z,27.20
2023-01-07T19:05:14.053Z,24.20
2023-01-07T19:07:42.419Z,25.40
2023-01-07T19:10:10.672Z,28.40
2023-01-07T19:12:38.754Z,32.00
2023-01-07T19:15:07.140Z,42.00
2023-01-07T19:17:35.217Z,42.40
2023-01-07T19:20:05.620Z,41.40
2023-01-07T19:22:33.775Z,47.50
2023-01-07T19:25:01.965Z,46.30
2023-01-07T19:27:30.228Z,42.80
2023-01-07T19:29:58.323Z,55.30
2023-01-07T19:32:27.209Z,47.10
2023-01-07T19:34:55.459Z,46.50
2023-01-07T19:37:23.446Z,50.70
2023-01-07T19:39:51.474Z,50.30
2023-01-07T19:42:19.697Z,45.10
2023-01-07T19:44:47.774Z,49.60
2023-01-07T19:47:17.336Z,46.30
2023-01-07T19:49:45.581Z,47.40
2023-01-07T19:52:14.088Z,44.60
2023-01-07T19:54:42.246Z,44.20
2023-01-07T19:57:10.288Z,37.70
2023-01-07T19:59:38.303Z,25.00
2023-01-07T20:02:06.441Z,28.50
2023-01-07T20:04:34.527Z,27.80
2023-01-07T20:07:02.719Z,34.40
2023-01-07T20:09:30.991Z,34.60
2023-01-07T20:11:58.960Z,24.70
2023-01-07T20:14:27.086Z,27.90
2023-01-07T20:16:55.143Z,25.70
2023-01-07T20:19:24.253Z,22.10
2023-01-07T20:21:52.750Z,13.90
2023-01-07T20:24:20.977Z,22.90
2023-01-07T20:26:49.037Z,26.50
2023-01-07T20:29:17.127Z,25.10
2023-01-07T20:31:45.214Z,23.70
2023-01-07T20:34:13.269Z,24.00
2023-01-07T20:36:41.382Z,29.20
2023-01-07T20:39:09.436Z,21.70
2023-01-07T20:41:39.024Z,20.80
2023-01-07T20:44:09.017Z,23.30
2023-01-07T20:46:39.206Z,23.30
2023-01-07T20:49:09.228Z,21.80
2023-01-07T20:51:37.591Z,18.80
2023-01-07T20:54:05.657Z,18.40
2023-01-07T20:56:33.772Z,15.90
2023-01-07T20:59:05.108Z,23.10
2023-01-07T21:01:33.491Z,24.30
2023-01-07T21:04:02.248Z,21.20
2023-01-07T21:06:30.639Z,20.80
2023-01-07T21:08:58.742Z,14.40
2023-01-07T21:11:26.774Z,21.20
2023-01-07T21:13:56.484Z,15.50
2023-01-07T21:16:25.496Z,16.30
2023-01-07T21:18:53.675Z,20.60
2023-01-07T21:21:24.662Z,22.60
2023-01-07T21:23:53.746Z,26.20
2023-01-07T21:26:21.888Z,33.70
2023-01-07T21:28:52.398Z,27.00
2023-01-07T21:31:20.525Z,23.30
2023-01-07T21:33:48.691Z,23.10
2023-01-07T21:36:17.843Z,27.60
2023-01-07T21:38:46.331Z,25.80
2023-01-07T21:41:15.494Z,21.80
2023-01-07T21:43:44.168Z,23.50
2023-01-07T21:46:12.644Z,20.40
2023-01-07T21:48:41.531Z,23.10
2023-01-07T21:51:15.597Z,39.80
2023-01-07T21:53:43.610Z,36.50
2023-01-07T21:56:14.575Z,28.90
2023-01-07T21:58:43.623Z,29.30
2023-01-07T22:01:12.200Z,25.10
2023-01-07T22:03:40.865Z,25.50
2023-01-07T22:06:15.296Z,21.00
2023-01-07T22:08:43.399Z,20.60
2023-01-07T22:11:15.491Z,25.10
2023-01-07T22:13:43.641Z,21.20
2023-01-07T22:16:11.765Z,16.40
2023-01-07T22:18:41.159Z,27.80
2023-01-07T22:21:09.265Z,26.40
2023-01-07T22:23:37.969Z,35.10
2023-01-07T22:26:06.515Z,36.10
2023-01-07T22:28:36.201Z,44.20
2023-01-07T22:31:07.531Z,35.50
2023-01-07T22:33:35.612Z,42.10
2023-01-07T22:36:03.848Z,41.00
2023-01-07T22:38:32.462Z,35.70
2023-01-07T22:41:03.235Z,36.50
2023-01-07T22:43:32.250Z,26.50
2023-01-07T22:46:03.326Z,24.00
2023-01-07T22:48:33.916Z,31.70
2023-01-07T22:51:28.360Z,30.20
2023-01-07T22:53:57.523Z,27.30
2023-01-07T22:56:25.790Z,22.80
2023-01-07T22:58:54.007Z,31.10
2023-01-07T23:01:22.110Z,34.20
2023-01-07T23:03:50.176Z,21.50
2023-01-07T23:06:18.180Z,23.20
2023-01-07T23:08:46.137Z,20.50
2023-01-07T23:11:34.260Z,21.80
2023-01-07T23:14:02.905Z,28.30
2023-01-07T23:16:31.027Z,30.90
2023-01-07T23:18:59.063Z,23.50
2023-01-07T23:21:27.338Z,18.80
2023-01-07T23:23:55.415Z,18.80
2023-01-07T23:26:23.384Z,22.00
2023-01-07T23:28:51.427Z,21.80
2023-01-07T23:31:19.892Z,27.50
2023-01-07T23:33:47.954Z,24.60
2023-01-07T23:36:15.921Z,28.50
2023-01-07T23:38:43.928Z,27.80
2023-01-07T23:41:12.269Z,22.10
2023-01-07T23:43:40.489Z,25.70
2023-01-07T23:46:08.763Z,20.60
2023-01-07T23:48:37.731Z,28.60
2023-01-07T23:51:08.586Z,22.20
2023-01-07T23:53:37.120Z,24.40
2023-01-07T23:56:05.634Z,23.20
2023-01-07T23:58:34.391Z,26.80
